createdAt,value
2023-03-26T00:00:29.474Z,75.00
2023-03-26T00:03:04.548Z,75.42
2023-03-26T00:05:21.227Z,75.95
2023-03-26T00:07:37.714Z,76.06
2023-03-26T00:09:51.744Z,76.40
2023-03-26T00:12:05.375Z,76.41
2023-03-26T00:14:28.246Z,76.11
2023-03-26T00:16:45.534Z,76.02
2023-03-26T00:19:11.103Z,76.00
2023-03-26T00:21:29.178Z,76.12
2023-03-26T00:23:44.266Z,76.27
2023-03-26T00:26:02.171Z,76.41
2023-03-26T00:28:18.505Z,76.80
2023-03-26T00:30:38.770Z,76.95
2023-03-26T00:33:03.332Z,77.17
2023-03-26T00:35:27.026Z,77.38
2023-03-26T00:37:44.349Z,77.54
2023-03-26T00:40:00.866Z,77.64
2023-03-26T00:42:16.040Z,77.72
2023-03-26T00:44:29.351Z,78.17
2023-03-26T00:46:43.313Z,78.45
2023-03-26T00:49:00.143Z,78.46
2023-03-26T00:51:16.789Z,78.68
2023-03-26T00:53:30.114Z,77.61
2023-03-26T00:55:45.200Z,76.13
2023-03-26T00:57:58.512Z,76.05
2023-03-26T01:00:18.001Z,75.78
2023-03-26T01:02:34.193Z,74.84
2023-03-26T01:04:51.860Z,76.04
2023-03-26T01:07:14.645Z,76.22
2023-03-26T01:09:34.301Z,75.31
2023-03-26T01:11:47.671Z,74.02
2023-03-26T01:14:03.742Z,74.23
2023-03-26T01:16:26.261Z,74.08
2023-03-26T01:18:42.360Z,73.91
2023-03-26T01:21:06.433Z,74.75
2023-03-26T01:23:25.366Z,74.71
2023-03-26T01:25:43.800Z,74.65
2023-03-26T01:27:59.267Z,74.56
2023-03-26T01:30:19.063Z,74.87
2023-03-26T01:32:42.652Z,74.67
2023-03-26T01:35:08.813Z,74.89
2023-03-26T01:37:28.881Z,75.00
2023-03-26T01:39:54.748Z,74.80
2023-03-26T01:42:13.006Z,74.77
2023-03-26T01:44:36.088Z,74.54
2023-03-26T01:46:51.204Z,74.93
2023-03-26T01:49:14.097Z,74.76
2023-03-26T01:51:37.281Z,75.41
2023-03-26T01:53:52.981Z,74.55
2023-03-26T01:56:16.511Z,74.68
2023-03-26T01:58:39.200Z,74.78
2023-03-26T02:01:07.333Z,74.39
2023-03-26T02:03:31.691Z,74.41
2023-03-26T02:05:54.288Z,74.68
2023-03-26T02:08:14.938Z,74.92
2023-03-26T02:10:34.209Z,75.45
2023-03-26T02:12:48.237Z,75.72
2023-03-26T02:15:02.509Z,75.36
2023-03-26T02:17:15.876Z,75.55
2023-03-26T02:19:29.982Z,75.38
2023-03-26T02:21:43.808Z,75.38
2023-03-26T02:24:04.231Z,75.46
2023-03-26T02:26:22.547Z,75.71
2023-03-26T02:28:56.218Z,76.08
2023-03-26T02:31:12.229Z,75.91
2023-03-26T02:33:25.287Z,76.04
2023-03-26T02:35:38.929Z,76.21
2023-03-26T02:37:53.000Z,76.15
2023-03-26T02:40:12.585Z,75.99
2023-03-26T02:42:28.204Z,76.45
2023-03-26T02:44:41.764Z,76.41
2023-03-26T02:46:54.794Z,76.13
2023-03-26T02:49:26.284Z,75.97
2023-03-26T02:51:41.165Z,76.15
2023-03-26T02:54:06.228Z,75.95
2023-03-26T02:56:22.056Z,75.79
2023-03-26T02:58:59.293Z,75.99
2023-03-26T03:01:13.713Z,75.83
2023-03-26T03:03:35.870Z,75.69
2023-03-26T03:06:12.963Z,75.73
2023-03-26T03:08:31.899Z,75.79
2023-03-26T03:11:11.089Z,76.03
2023-03-26T03:13:32.967Z,76.12
2023-03-26T03:15:54.880Z,76.17
2023-03-26T03:18:14.823Z,76.28
2023-03-26T03:20:31.653Z,76.24
2023-03-26T03:22:51.890Z,76.15
2023-03-26T03:25:06.165Z,76.14
2023-03-26T03:27:23.325Z,76.22
2023-03-26T03:29:50.539Z,76.32
2023-03-26T03:32:41.773Z,76.52
2023-03-26T03:34:57.937Z,76.40
2023-03-26T03:37:11.298Z,76.35
2023-03-26T03:39:32.544Z,76.68
2023-03-26T03:41:47.442Z,76.68
2023-03-26T03:44:03.902Z,76.63
2023-03-26T03:46:20.636Z,76.98
2023-03-26T03:48:40.321Z,77.09
2023-03-26T03:50:55.323Z,77.12
2023-03-26T03:53:29.685Z,77.54
2023-03-26T03:55:44.880Z,77.73
2023-03-26T03:58:00.599Z,77.73
2023-03-26T04:00:17.557Z,77.80
2023-03-26T04:02:35.857Z,77.75
2023-03-26T04:04:51.447Z,77.86
2023-03-26T04:07:07.277Z,78.16
2023-03-26T04:09:43.558Z,78.28
2023-03-26T04:12:02.173Z,78.32
2023-03-26T04:14:23.373Z,78.33
2023-03-26T04:16:57.375Z,78.48
2023-03-26T04:19:11.426Z,78.81
2023-03-26T04:21:25.512Z,78.97
2023-03-26T04:23:39.606Z,79.18
2023-03-26T04:26:10.725Z,79.32
2023-03-26T04:28:49.618Z,79.40
2023-03-26T04:31:15.067Z,79.49
2023-03-26T04:33:30.494Z,79.67
2023-03-26T04:35:46.346Z,79.83
2023-03-26T04:38:01.326Z,79.93
2023-03-26T04:40:23.388Z,79.77
2023-03-26T04:42:47.271Z,79.93
2023-03-26T04:45:31.507Z,79.98
2023-03-26T04:47:44.958Z,80.03
2023-03-26T04:49:58.688Z,80.19
2023-03-26T04:52:13.627Z,80.51
2023-03-26T04:55:06.047Z,80.65
2023-03-26T04:57:24.692Z,80.51
2023-03-26T04:59:47.452Z,80.43
2023-03-26T05:02:02.122Z,80.43
2023-03-26T05:04:17.739Z,80.36
2023-03-26T05:06:31.726Z,80.53
2023-03-26T05:08:46.821Z,80.44
2023-03-26T05:11:12.805Z,80.48
2023-03-26T05:13:26.537Z,80.38
2023-03-26T05:15:40.818Z,80.37
2023-03-26T05:18:14.129Z,80.60
2023-03-26T05:20:32.819Z,80.69
2023-03-26T05:22:47.831Z,80.77
2023-03-26T05:25:18.147Z,80.84
2023-03-26T05:27:32.196Z,80.99
2023-03-26T05:29:46.202Z,80.95
2023-03-26T05:31:59.433Z,81.13
2023-03-26T05:34:15.985Z,81.20
2023-03-26T05:36:29.428Z,81.33
2023-03-26T05:39:11.714Z,81.51
2023-03-26T05:41:46.108Z,81.49
2023-03-26T05:43:59.095Z,81.85
2023-03-26T05:46:15.376Z,82.05
2023-03-26T05:48:39.337Z,82.15
2023-03-26T05:50:54.909Z,82.37
2023-03-26T05:53:08.737Z,82.19
2023-03-26T05:55:41.728Z,82.22
2023-03-26T05:58:13.428Z,82.61
2023-03-26T06:01:09.556Z,82.76
2023-03-26T06:03:47.695Z,83.01
2023-03-26T06:06:07.062Z,82.97
2023-03-26T06:08:28.434Z,82.90
2023-03-26T06:10:43.464Z,82.77
2023-03-26T06:12:58.824Z,82.91
2023-03-26T06:15:15.215Z,82.97
2023-03-26T06:17:44.216Z,83.13
2023-03-26T06:20:26.952Z,83.23
2023-03-26T06:22:40.089Z,83.47
2023-03-26T06:25:07.645Z,83.38
2023-03-26T06:27:30.819Z,83.59
2023-03-26T06:30:02.355Z,83.56
2023-03-26T06:32:24.560Z,83.78
2023-03-26T06:34:41.596Z,84.05
2023-03-26T06:36:55.737Z,84.07
2023-03-26T06:39:09.700Z,84.29
2023-03-26T06:41:28.236Z,84.25
2023-03-26T06:43:57.960Z,84.39
2023-03-26T06:46:24.729Z,84.52
2023-03-26T06:48:57.502Z,84.47
2023-03-26T06:51:34.229Z,84.56
2023-03-26T06:53:49.879Z,84.69
2023-03-26T06:56:15.442Z,84.66
2023-03-26T06:58:46.669Z,84.83
2023-03-26T07:01:23.614Z,84.81
2023-03-26T07:03:56.063Z,84.91
2023-03-26T07:06:31.769Z,84.97
2023-03-26T07:09:11.661Z,85.05
2023-03-26T07:11:43.950Z,85.05
2023-03-26T07:14:16.073Z,85.31
2023-03-26T07:16:47.508Z,85.20
2023-03-26T07:19:20.594Z,85.10
2023-03-26T07:21:35.374Z,85.18
2023-03-26T07:23:56.596Z,85.39
2023-03-26T07:26:38.074Z,85.62
2023-03-26T07:29:10.239Z,85.73
2023-03-26T07:31:48.388Z,85.51
2023-03-26T07:34:48.982Z,85.43
2023-03-26T07:37:25.831Z,85.47
2023-03-26T07:40:08.484Z,85.64
2023-03-26T07:43:04.258Z,85.63
2023-03-26T07:45:57.844Z,85.57
2023-03-26T07:48:22.307Z,85.45
2023-03-26T07:51:04.267Z,85.41
2023-03-26T07:53:50.329Z,85.17
2023-03-26T07:56:29.915Z,85.30
2023-03-26T07:59:05.279Z,85.48
2023-03-26T08:01:44.314Z,85.40
2023-03-26T08:04:31.071Z,85.69
2023-03-26T08:07:21.626Z,85.76
2023-03-26T08:10:05.157Z,85.90
2023-03-26T08:12:56.923Z,85.83
2023-03-26T08:15:14.495Z,86.00
2023-03-26T08:17:39.191Z,85.88
2023-03-26T08:20:09.018Z,85.99
2023-03-26T08:22:29.185Z,85.98
2023-03-26T08:24:56.011Z,85.90
2023-03-26T08:27:17.894Z,86.01
2023-03-26T08:29:40.596Z,85.95
2023-03-26T08:31:56.654Z,86.09
2023-03-26T08:34:09.895Z,86.15
2023-03-26T08:36:22.734Z,86.25
2023-03-26T08:38:36.156Z,86.24
2023-03-26T08:41:26.111Z,86.30
2023-03-26T08:44:07.505Z,86.46
2023-03-26T08:46:44.432Z,86.60
2023-03-26T08:49:38.635Z,86.32
2023-03-26T08:52:36.841Z,86.39
2023-03-26T08:55:13.105Z,86.62
2023-03-26T08:58:28.414Z,86.70
2023-03-26T09:00:57.248Z,86.74
2023-03-26T09:03:56.709Z,86.76
2023-03-26T09:06:38.117Z,86.92
2023-03-26T09:09:31.363Z,87.08
2023-03-26T09:11:54.414Z,86.97
2023-03-26T09:14:34.809Z,87.12
2023-03-26T09:17:14.074Z,87.16
2023-03-26T09:20:16.417Z,86.96
2023-03-26T09:23:09.531Z,87.31
2023-03-26T09:25:44.268Z,87.46
2023-03-26T09:28:17.648Z,87.60
2023-03-26T09:31:10.003Z,87.79
2023-03-26T09:33:55.222Z,87.99
2023-03-26T09:39:28.799Z,87.93
2023-03-26T09:41:45.859Z,87.82
2023-03-26T09:44:49.616Z,87.78
2023-03-26T09:47:30.492Z,87.83
2023-03-26T09:49:53.934Z,87.99
2023-03-26T09:52:22.770Z,87.96
2023-03-26T09:55:10.710Z,88.01
2023-03-26T09:57:32.593Z,88.11
2023-03-26T10:00:05.222Z,88.63
2023-03-26T10:02:45.291Z,88.76
2023-03-26T10:05:20.810Z,89.36
2023-03-26T10:07:50.829Z,89.99
2023-03-26T10:10:10.901Z,90.08
2023-03-26T10:12:31.921Z,90.03
2023-03-26T10:14:47.917Z,89.99
2023-03-26T10:17:06.786Z,90.11
2023-03-26T10:19:43.632Z,90.37
2023-03-26T10:22:04.228Z,90.34
2023-03-26T10:24:26.119Z,90.20
2023-03-26T10:27:08.891Z,90.54
2023-03-26T10:29:46.568Z,90.57
2023-03-26T10:32:05.939Z,91.74
2023-03-26T10:34:31.259Z,92.81
2023-03-26T10:36:49.064Z,92.24
2023-03-26T10:39:35.878Z,91.41
2023-03-26T10:41:53.907Z,90.45
2023-03-26T10:44:36.542Z,89.84
2023-03-26T10:47:09.094Z,90.17
2023-03-26T10:49:55.925Z,90.05
2023-03-26T10:52:10.131Z,89.63
2023-03-26T10:54:41.792Z,90.07
2023-03-26T10:56:53.728Z,89.76
2023-03-26T10:59:08.047Z,89.46
2023-03-26T11:01:30.087Z,89.22
2023-03-26T11:03:52.893Z,89.15
2023-03-26T11:06:13.016Z,88.86
2023-03-26T11:08:31.953Z,88.35
2023-03-26T11:10:55.484Z,87.96
2023-03-26T11:13:16.228Z,87.70
2023-03-26T11:15:31.741Z,87.39
2023-03-26T11:17:53.057Z,87.33
2023-03-26T11:20:12.182Z,87.03
2023-03-26T11:22:29.710Z,87.05
2023-03-26T11:25:16.609Z,87.40
2023-03-26T11:27:39.978Z,87.20
2023-03-26T11:29:57.141Z,86.79
2023-03-26T11:32:12.370Z,86.47
2023-03-26T11:34:29.791Z,86.59
2023-03-26T11:36:45.602Z,86.78
2023-03-26T11:38:59.905Z,86.53
2023-03-26T11:41:23.296Z,86.76
2023-03-26T11:43:38.891Z,86.71
2023-03-26T11:45:52.386Z,87.01
2023-03-26T11:48:08.667Z,87.15
2023-03-26T11:50:26.016Z,87.31
2023-03-26T11:52:36.684Z,87.20
2023-03-26T11:54:51.326Z,87.07
2023-03-26T11:57:06.704Z,87.21
2023-03-26T11:59:21.661Z,87.45
2023-03-26T12:01:44.772Z,87.54
2023-03-26T12:04:13.812Z,88.09
2023-03-26T12:06:29.871Z,88.61
2023-03-26T12:08:43.704Z,89.44
2023-03-26T12:11:11.026Z,89.83
2023-03-26T12:13:36.619Z,89.97
2023-03-26T12:15:48.477Z,89.68
2023-03-26T12:18:00.340Z,89.74
2023-03-26T12:20:32.764Z,89.97
2023-03-26T12:22:44.974Z,89.71
2023-03-26T12:25:05.585Z,89.53
2023-03-26T12:27:31.289Z,89.51
2023-03-26T12:29:41.503Z,89.18
2023-03-26T12:32:06.791Z,88.97
2023-03-26T12:34:22.961Z,88.90
2023-03-26T12:36:34.624Z,88.66
2023-03-26T12:38:46.571Z,88.56
2023-03-26T12:44:42.291Z,88.82
2023-03-26T12:44:54.133Z,88.53
2023-03-26T12:47:55.305Z,87.43
2023-03-26T12:49:01.769Z,86.71
2023-03-26T12:51:20.804Z,86.32
2023-03-26T12:53:46.335Z,84.97
2023-03-26T12:56:04.372Z,85.27
2023-03-26T12:58:40.124Z,85.00
2023-03-26T13:01:03.086Z,84.69
2023-03-26T13:03:42.544Z,84.43
2023-03-26T13:06:19.398Z,84.47
2023-03-26T13:08:50.717Z,84.61
2023-03-26T13:11:10.696Z,84.56
2023-03-26T13:13:57.081Z,84.77
2023-03-26T13:16:12.184Z,84.45
2023-03-26T13:18:34.337Z,84.52
2023-03-26T13:20:58.054Z,84.80
2023-03-26T13:23:19.208Z,84.89
2023-03-26T13:25:39.845Z,84.95
2023-03-26T13:28:00.177Z,85.07
2023-03-26T13:30:29.916Z,85.22
2023-03-26T13:32:51.435Z,85.31
2023-03-26T13:35:21.661Z,85.30
2023-03-26T13:37:36.819Z,85.30
2023-03-26T13:40:00.724Z,85.35
2023-03-26T13:42:34.473Z,85.45
2023-03-26T13:45:05.193Z,85.33
2023-03-26T13:47:20.187Z,85.41
2023-03-26T13:49:37.671Z,85.51
2023-03-26T13:51:52.170Z,85.36
2023-03-26T13:54:08.115Z,85.28
2023-03-26T13:56:24.271Z,85.49
2023-03-26T13:58:41.021Z,85.64
2023-03-26T14:01:04.659Z,85.70
2023-03-26T14:03:27.184Z,85.85
2023-03-26T14:05:42.196Z,85.85
2023-03-26T14:07:57.792Z,86.46
2023-03-26T14:10:10.854Z,86.58
2023-03-26T14:12:49.634Z,86.76
2023-03-26T14:15:04.705Z,86.98
2023-03-26T14:17:21.935Z,87.49
2023-03-26T14:19:57.770Z,87.46
2023-03-26T14:22:21.183Z,87.24
2023-03-26T14:24:56.298Z,87.84
2023-03-26T14:27:40.261Z,87.40
2023-03-26T14:30:12.207Z,87.47
2023-03-26T14:32:34.940Z,87.42
2023-03-26T14:34:55.087Z,87.05
2023-03-26T14:37:45.175Z,87.66
2023-03-26T14:40:15.549Z,87.56
2023-03-26T14:42:36.925Z,87.42
2023-03-26T14:45:28.886Z,87.34
2023-03-26T14:47:47.724Z,87.40
2023-03-26T14:50:39.536Z,87.36
2023-03-26T14:53:01.227Z,87.31
2023-03-26T14:55:20.575Z,87.41
2023-03-26T14:57:51.599Z,87.36
2023-03-26T15:00:54.409Z,87.66
2023-03-26T15:03:49.738Z,87.50
2023-03-26T15:06:36.929Z,87.54
2023-03-26T15:09:13.220Z,87.74
2023-03-26T15:11:34.539Z,87.73
2023-03-26T15:14:02.965Z,87.91
2023-03-26T15:16:47.563Z,87.86
2023-03-26T15:19:29.946Z,88.03
2023-03-26T15:22:15.238Z,88.00
2023-03-26T15:24:55.869Z,87.69
2023-03-26T15:27:33.995Z,87.39
2023-03-26T15:30:19.884Z,87.39
2023-03-26T15:33:06.103Z,87.38
2023-03-26T15:35:55.737Z,87.08
2023-03-26T15:38:48.461Z,86.62
2023-03-26T15:41:18.324Z,86.99
2023-03-26T15:44:05.071Z,86.28
2023-03-26T15:46:53.096Z,85.96
2023-03-26T15:49:16.875Z,85.97
2023-03-26T15:51:58.526Z,86.31
2023-03-26T15:54:18.998Z,86.05
2023-03-26T15:56:49.691Z,86.12
2023-03-26T15:59:08.605Z,86.42
2023-03-26T16:01:32.547Z,86.60
2023-03-26T16:03:50.616Z,86.52
2023-03-26T16:06:36.980Z,86.46
2023-03-26T16:08:56.995Z,86.51
2023-03-26T16:11:11.274Z,86.73
2023-03-26T16:13:34.783Z,86.85
2023-03-26T16:15:45.254Z,86.80
2023-03-26T16:18:27.405Z,86.78
2023-03-26T16:20:51.500Z,86.96
2023-03-26T16:23:05.035Z,87.43
2023-03-26T16:25:31.983Z,87.62
2023-03-26T16:27:43.626Z,87.64
2023-03-26T16:30:27.959Z,87.70
2023-03-26T16:32:42.805Z,87.56
2023-03-26T16:34:57.257Z,87.65
2023-03-26T16:37:29.539Z,87.56
2023-03-26T16:39:46.845Z,87.34
2023-03-26T16:42:41.225Z,87.25
2023-03-26T16:45:09.916Z,87.12
2023-03-26T16:47:27.902Z,87.40
2023-03-26T16:50:08.209Z,87.54
2023-03-26T16:52:44.507Z,87.82
2023-03-26T16:55:02.654Z,88.10
2023-03-26T16:57:25.814Z,88.32
2023-03-26T17:00:06.200Z,88.79
2023-03-26T17:02:28.893Z,89.20
2023-03-26T17:04:40.656Z,89.71
2023-03-26T17:07:15.600Z,90.09
2023-03-26T17:09:35.696Z,90.58
2023-03-26T17:11:58.117Z,91.37
2023-03-26T17:14:24.574Z,91.64
2023-03-26T17:16:39.467Z,90.90
2023-03-26T17:19:01.122Z,90.40
2023-03-26T17:21:17.958Z,89.12
2023-03-26T17:23:51.643Z,88.42
2023-03-26T17:26:13.324Z,88.00
2023-03-26T17:28:52.136Z,88.05
2023-03-26T17:31:08.164Z,87.04
2023-03-26T17:33:30.193Z,86.81
2023-03-26T17:35:47.418Z,86.50
2023-03-26T17:37:58.609Z,86.01
2023-03-26T17:40:50.405Z,85.55
2023-03-26T17:43:11.541Z,85.21
2023-03-26T17:45:25.575Z,85.08
2023-03-26T17:47:41.685Z,84.81
2023-03-26T17:49:53.285Z,84.63
2023-03-26T17:52:07.086Z,84.50
2023-03-26T17:54:25.124Z,84.22
2023-03-26T17:56:38.102Z,84.23
2023-03-26T17:58:48.720Z,84.47
2023-03-26T18:01:09.427Z,84.88
2023-03-26T18:03:24.755Z,84.80
2023-03-26T18:05:35.682Z,84.49
2023-03-26T18:08:15.706Z,85.22
2023-03-26T18:10:46.016Z,84.47
2023-03-26T18:13:11.180Z,84.21
2023-03-26T18:15:44.934Z,84.06
2023-03-26T18:18:04.652Z,83.75
2023-03-26T18:20:25.172Z,83.05
2023-03-26T18:22:35.762Z,81.19
2023-03-26T18:24:48.097Z,81.34
2023-03-26T18:27:01.564Z,82.04
2023-03-26T18:29:21.889Z,82.22
2023-03-26T18:31:33.609Z,81.12
2023-03-26T18:33:51.894Z,81.89
2023-03-26T18:36:02.646Z,81.92
2023-03-26T18:38:36.085Z,81.28
2023-03-26T18:40:50.185Z,81.24
2023-03-26T18:43:01.575Z,80.73
2023-03-26T18:45:21.197Z,79.84
2023-03-26T18:47:37.226Z,80.25
2023-03-26T18:49:49.584Z,79.70
2023-03-26T18:52:00.244Z,79.62
2023-03-26T18:54:17.627Z,79.57
2023-03-26T18:56:37.086Z,79.38
2023-03-26T18:58:54.395Z,79.22
2023-03-26T19:01:08.566Z,78.82
2023-03-26T19:03:25.532Z,79.25
2023-03-26T19:05:37.858Z,79.46
2023-03-26T19:07:49.031Z,79.44
2023-03-26T19:09:59.085Z,78.80
2023-03-26T19:12:17.972Z,78.58
2023-03-26T19:14:36.015Z,78.47
2023-03-26T19:16:48.014Z,77.58
2023-03-26T19:19:00.444Z,78.07
2023-03-26T19:21:11.413Z,77.95
2023-03-26T19:23:24.054Z,76.72
2023-03-26T19:25:33.731Z,76.66
2023-03-26T19:27:43.586Z,77.51
2023-03-26T19:29:54.004Z,77.30
2023-03-26T19:32:17.206Z,77.62
2023-03-26T19:34:33.868Z,77.69
2023-03-26T19:36:58.571Z,76.89
2023-03-26T19:39:24.284Z,75.47
2023-03-26T19:41:44.226Z,75.24
2023-03-26T19:46:26.694Z,76.85
2023-03-26T19:48:46.733Z,76.91
2023-03-26T19:51:06.594Z,76.63
2023-03-26T19:51:18.146Z,75.95
2023-03-26T19:53:24.751Z,75.33
2023-03-26T19:55:34.908Z,75.06
2023-03-26T19:57:45.830Z,75.30
2023-03-26T19:59:57.536Z,74.59
2023-03-26T20:02:11.852Z,73.99
2023-03-26T20:04:21.780Z,73.57
2023-03-26T20:06:42.551Z,73.19
2023-03-26T20:08:53.610Z,72.79
2023-03-26T20:11:03.951Z,73.00
2023-03-26T20:13:19.352Z,73.80
2023-03-26T20:15:32.162Z,73.95
2023-03-26T20:17:43.641Z,72.86
2023-03-26T20:19:54.801Z,73.43
2023-03-26T20:22:06.275Z,71.70
2023-03-26T20:24:16.329Z,71.78
2023-03-26T20:26:27.292Z,72.89
2023-03-26T20:28:47.327Z,73.36
2023-03-26T20:30:58.115Z,73.64
2023-03-26T20:33:13.294Z,73.74
2023-03-26T20:35:35.896Z,74.57
2023-03-26T20:37:47.396Z,74.87
2023-03-26T20:39:56.974Z,73.66
2023-03-26T20:42:07.962Z,72.71
2023-03-26T20:44:19.290Z,72.22
2023-03-26T20:46:30.686Z,71.26
2023-03-26T20:48:41.844Z,71.41
2023-03-26T20:50:51.944Z,71.56
2023-03-26T20:53:03.473Z,71.92
2023-03-26T20:55:17.059Z,72.00
2023-03-26T20:57:26.939Z,71.63
2023-03-26T20:59:37.008Z,71.36
2023-03-26T21:01:47.943Z,71.62
2023-03-26T21:03:58.538Z,71.20
2023-03-26T21:06:13.846Z,70.58
2023-03-26T21:08:30.731Z,71.02
2023-03-26T21:10:41.861Z,72.04
2023-03-26T21:12:59.145Z,71.94
2023-03-26T21:15:22.310Z,71.64
2023-03-26T21:17:34.739Z,71.59
2023-03-26T21:19:46.596Z,70.18
2023-03-26T21:22:05.653Z,69.54
2023-03-26T21:24:23.362Z,69.51
2023-03-26T21:26:41.640Z,69.62
2023-03-26T21:28:52.941Z,70.38
2023-03-26T21:31:05.332Z,71.52
2023-03-26T21:33:16.062Z,72.40
2023-03-26T21:35:27.684Z,72.50
2023-03-26T21:37:38.844Z,73.31
2023-03-26T21:39:49.307Z,73.67
2023-03-26T21:42:04.888Z,73.86
2023-03-26T21:44:16.954Z,74.13
2023-03-26T21:46:27.983Z,75.11
2023-03-26T21:48:39.454Z,75.87
2023-03-26T21:50:50.566Z,75.76
2023-03-26T21:53:01.633Z,75.63
2023-03-26T21:55:15.842Z,75.87
2023-03-26T21:57:48.027Z,75.93
2023-03-26T22:00:15.346Z,76.07
2023-03-26T22:02:32.498Z,76.25
2023-03-26T22:04:48.474Z,75.99
2023-03-26T22:07:04.856Z,76.14
2023-03-26T22:09:18.496Z,76.10
2023-03-26T22:11:31.167Z,76.00
2023-03-26T22:13:41.587Z,75.85
2023-03-26T22:15:51.875Z,76.17
2023-03-26T22:18:05.671Z,77.00
2023-03-26T22:20:16.536Z,78.25
2023-03-26T22:22:28.828Z,78.89
2023-03-26T22:24:39.546Z,79.10
2023-03-26T22:26:49.253Z,79.10
2023-03-26T22:28:58.980Z,79.19
2023-03-26T22:31:12.657Z,79.25
2023-03-26T22:33:22.439Z,79.00
2023-03-26T22:35:32.135Z,79.14
2023-03-26T22:37:42.426Z,79.23
2023-03-26T22:39:52.312Z,79.41
2023-03-26T22:42:04.442Z,79.72
2023-03-26T22:46:31.384Z,79.77
2023-03-26T22:48:41.987Z,79.48
2023-03-26T22:51:01.566Z,79.24
2023-03-26T22:53:11.475Z,79.14
2023-03-26T22:55:28.353Z,79.34
2023-03-26T22:57:39.137Z,79.49
2023-03-26T22:59:48.851Z,78.71
2023-03-26T23:01:59.073Z,79.30
2023-03-26T23:04:09.121Z,79.46
2023-03-26T23:06:19.091Z,79.58
2023-03-26T23:08:29.287Z,78.50
2023-03-26T23:10:39.106Z,78.21
2023-03-26T23:12:49.258Z,77.41
2023-03-26T23:14:58.775Z,77.20
2023-03-26T23:17:14.960Z,77.37
2023-03-26T23:19:26.043Z,77.45
2023-03-26T23:21:37.208Z,77.44
2023-03-26T23:23:47.797Z,77.26
2023-03-26T23:25:59.438Z,77.81
2023-03-26T23:28:10.386Z,78.52
2023-03-26T23:30:21.301Z,78.76
2023-03-26T23:32:31.347Z,78.18
2023-03-26T23:34:52.042Z,77.62
2023-03-26T23:37:02.649Z,78.21
2023-03-26T23:39:12.841Z,77.57
2023-03-26T23:41:25.979Z,76.23
2023-03-26T23:43:35.942Z,76.35
2023-03-26T23:45:47.666Z,76.02
2023-03-26T23:47:57.991Z,74.84
2023-03-26T23:50:10.272Z,75.01
2023-03-26T23:52:20.647Z,74.81
2023-03-26T23:54:31.086Z,74.40
2023-03-26T23:56:40.636Z,74.07
2023-03-26T23:58:50.469Z,74.23
